Bois-Des-Filion, Canada
Current Conditions -  °F | °C
As of 6:00 AM on Thursday 23 Oct 2014 (Local Time) from CYUL Reporting Station
Broken Clouds Broken Clouds  
Wind Chill: 36°   Ceiling: 4500
Heat Index: 45°   Visibility: 15mi
Dew Point: 34°   Wind: 24mph
Humidity: 66%   Direction: 20°NNE
Pressure: 30.09"   Gusts: 31mph
Location:  45.65°N, 73.77°W
Report Text: CYUL 231000Z 02021G27KT 15SM BKN045 BKN090 07/01 A3009 RMK SC5AC2 SLP192
Loading
Personal Weather Stations






























Interactive Weather Map
Tropical Storm Tracking
New forecast layout! Learn more

10-Day Weather Forecast

Advertisements
Track Severe Weather on mobile